createdAt,value
2022-12-04T00:00:04.862Z,0.00
2022-12-04T00:01:04.840Z,0.00
2022-12-04T00:02:04.825Z,0.00
2022-12-04T00:03:04.881Z,0.00
2022-12-04T00:04:04.788Z,0.00
2022-12-04T00:05:04.898Z,0.00
2022-12-04T00:06:04.756Z,0.00
2022-12-04T00:07:04.730Z,0.00
2022-12-04T00:08:04.825Z,0.00
2022-12-04T00:09:04.695Z,0.00
2022-12-04T00:10:04.678Z,0.00
2022-12-04T00:11:04.656Z,0.00
2022-12-04T00:12:04.640Z,0.00
2022-12-04T00:13:04.619Z,0.00
2022-12-04T00:14:07.245Z,0.00
2022-12-04T00:16:04.722Z,0.00
2022-12-04T00:17:04.546Z,0.00
2022-12-04T00:18:04.532Z,0.00
2022-12-04T00:19:04.513Z,0.00
2022-12-04T00:20:04.495Z,0.00
2022-12-04T00:21:04.490Z,0.00
2022-12-04T00:22:04.458Z,0.00
2022-12-04T00:23:04.437Z,0.00
2022-12-04T00:24:04.421Z,0.00
2022-12-04T00:25:04.399Z,0.00
2022-12-04T00:26:04.389Z,0.00
2022-12-04T00:27:04.367Z,0.00
2022-12-04T00:28:04.348Z,0.00
2022-12-04T00:29:04.325Z,0.00
2022-12-04T00:30:04.311Z,0.00
2022-12-04T00:31:04.365Z,0.00
2022-12-04T00:32:04.327Z,0.00
2022-12-04T00:33:04.252Z,0.00
2022-12-04T00:34:08.001Z,0.00
2022-12-04T00:35:04.215Z,0.00
2022-12-04T00:36:04.204Z,0.00
2022-12-04T00:37:04.199Z,0.00
2022-12-04T00:38:04.165Z,0.00
2022-12-04T00:39:04.143Z,0.00
2022-12-04T00:40:04.128Z,0.00
2022-12-04T00:41:04.109Z,0.00
2022-12-04T00:42:04.091Z,0.00
2022-12-04T00:43:04.069Z,0.00
2022-12-04T00:44:04.055Z,0.00
2022-12-04T00:45:04.034Z,0.00
2022-12-04T00:46:04.077Z,0.00
2022-12-04T00:47:03.997Z,0.00
2022-12-04T00:48:03.981Z,0.00
2022-12-04T00:49:03.959Z,0.00
2022-12-04T00:50:03.945Z,0.00
2022-12-04T00:51:03.929Z,0.00
2022-12-04T00:52:03.908Z,0.00
2022-12-04T00:53:03.907Z,0.00
2022-12-04T00:54:03.871Z,0.00
2022-12-04T00:55:03.850Z,0.00
2022-12-04T00:56:03.835Z,0.00
2022-12-04T00:57:03.914Z,0.00
2022-12-04T00:58:03.801Z,0.00
2022-12-04T00:59:03.779Z,0.00
2022-12-04T01:00:03.762Z,0.00
2022-12-04T01:01:03.914Z,0.00
2022-12-04T01:02:03.727Z,0.00
2022-12-04T01:03:03.744Z,0.00
2022-12-04T01:04:03.688Z,0.00
2022-12-04T01:05:03.668Z,0.00
2022-12-04T01:06:03.655Z,0.00
2022-12-04T01:07:05.403Z,0.00
2022-12-04T01:08:03.744Z,0.00
2022-12-04T01:09:03.596Z,0.00
2022-12-04T01:10:03.580Z,0.00
2022-12-04T01:11:03.565Z,0.00
2022-12-04T01:12:03.566Z,0.00
2022-12-04T01:13:03.542Z,0.00
2022-12-04T01:14:03.519Z,0.00
2022-12-04T01:15:03.508Z,0.00
2022-12-04T01:16:03.571Z,0.00
2022-12-04T01:17:03.453Z,0.00
2022-12-04T01:18:03.436Z,0.00
2022-12-04T01:19:03.416Z,0.00
2022-12-04T01:20:03.398Z,0.00
2022-12-04T01:21:03.377Z,0.00
2022-12-04T01:22:03.362Z,0.00
2022-12-04T01:23:03.340Z,0.00
2022-12-04T01:24:03.327Z,0.00
2022-12-04T01:25:03.308Z,0.00
2022-12-04T01:26:03.290Z,0.00
2022-12-04T01:27:03.270Z,0.00
2022-12-04T01:28:03.255Z,0.00
2022-12-04T01:29:03.255Z,0.00
2022-12-04T01:30:03.219Z,0.00
2022-12-04T01:31:03.195Z,0.00
2022-12-04T01:32:03.263Z,0.00
2022-12-04T01:33:03.160Z,0.00
2022-12-04T01:35:03.128Z,0.00
2022-12-04T01:36:03.106Z,0.00
2022-12-04T01:37:03.091Z,0.00
2022-12-04T01:38:03.069Z,0.00
2022-12-04T01:39:03.057Z,0.00
2022-12-04T01:40:03.035Z,0.00
2022-12-04T01:41:03.021Z,0.00
2022-12-04T01:42:03.001Z,0.00
2022-12-04T01:43:02.982Z,0.00
2022-12-04T01:44:02.960Z,0.00
2022-12-04T01:45:02.972Z,0.00
2022-12-04T01:46:02.980Z,0.00
2022-12-04T01:47:02.911Z,0.00
2022-12-04T01:48:02.887Z,0.00
2022-12-04T01:49:02.877Z,0.00
2022-12-04T01:50:02.853Z,0.00
2022-12-04T01:51:02.838Z,0.00
2022-12-04T01:52:02.817Z,0.00
2022-12-04T01:53:02.802Z,0.00
2022-12-04T01:54:02.781Z,0.00
2022-12-04T01:55:02.768Z,0.00
2022-12-04T01:56:02.744Z,0.00
2022-12-04T01:57:02.731Z,0.00
2022-12-04T01:58:02.719Z,0.00
2022-12-04T01:59:02.694Z,0.00
2022-12-04T02:00:02.671Z,0.00
2022-12-04T02:01:08.264Z,0.00
2022-12-04T02:02:02.801Z,0.00
2022-12-04T02:03:02.732Z,0.00
2022-12-04T02:04:02.600Z,0.00
2022-12-04T02:05:02.586Z,0.00
2022-12-04T02:06:02.667Z,0.00
2022-12-04T02:07:02.552Z,0.00
2022-12-04T02:08:02.591Z,0.00
2022-12-04T02:09:02.517Z,0.00
2022-12-04T02:10:02.493Z,0.00
2022-12-04T02:11:02.480Z,0.00
2022-12-04T02:12:02.456Z,0.00
2022-12-04T02:13:02.442Z,0.00
2022-12-04T02:14:02.421Z,0.00
2022-12-04T02:15:02.407Z,0.00
2022-12-04T02:16:02.384Z,0.00
2022-12-04T02:17:02.460Z,0.00
2022-12-04T02:18:02.349Z,0.00
2022-12-04T02:19:02.335Z,0.00
2022-12-04T02:20:02.312Z,0.00
2022-12-04T02:21:02.299Z,0.00
2022-12-04T02:22:02.277Z,0.00
2022-12-04T02:23:02.262Z,0.00
2022-12-04T02:24:02.249Z,0.00
2022-12-04T02:25:02.227Z,0.00
2022-12-04T02:26:02.205Z,0.00
2022-12-04T02:27:02.211Z,0.00
2022-12-04T02:28:02.168Z,0.00
2022-12-04T02:29:02.254Z,0.00
2022-12-04T02:30:02.132Z,0.00
2022-12-04T02:31:02.219Z,0.00
2022-12-04T02:32:02.096Z,0.00
2022-12-04T02:33:02.149Z,0.00
2022-12-04T02:34:02.064Z,0.00
2022-12-04T02:35:02.046Z,0.00
2022-12-04T02:36:02.124Z,0.00
2022-12-04T02:37:02.010Z,0.00
2022-12-04T02:38:01.998Z,0.00
2022-12-04T02:39:01.977Z,0.00
2022-12-04T02:40:01.952Z,0.00
2022-12-04T02:41:01.938Z,0.00
2022-12-04T02:42:01.918Z,0.00
2022-12-04T02:43:01.903Z,0.00
2022-12-04T02:44:01.881Z,0.00
2022-12-04T02:45:01.868Z,0.00
2022-12-04T02:46:01.935Z,0.00
2022-12-04T02:47:01.832Z,0.00
2022-12-04T02:48:01.808Z,0.00
2022-12-04T02:49:01.816Z,0.00
2022-12-04T02:50:01.774Z,0.00
2022-12-04T02:51:01.774Z,0.00
2022-12-04T02:52:01.736Z,0.00
2022-12-04T02:53:01.722Z,0.00
2022-12-04T02:54:01.701Z,0.00
2022-12-04T02:55:06.759Z,0.00
2022-12-04T02:56:01.663Z,0.00
2022-12-04T02:57:01.655Z,0.00
2022-12-04T02:58:01.641Z,0.00
2022-12-04T02:59:01.613Z,0.00
2022-12-04T03:00:01.592Z,0.00
2022-12-04T03:01:01.647Z,0.00
2022-12-04T03:02:01.606Z,0.00
2022-12-04T03:03:01.599Z,0.00
2022-12-04T03:04:01.522Z,0.00
2022-12-04T03:05:01.527Z,0.00
2022-12-04T03:06:01.490Z,0.00
2022-12-04T03:07:01.469Z,0.00
2022-12-04T03:08:01.532Z,0.00
2022-12-04T03:09:01.432Z,0.00
2022-12-04T03:10:01.413Z,0.00
2022-12-04T03:11:01.395Z,0.00
2022-12-04T03:12:01.374Z,0.00
2022-12-04T03:13:01.359Z,0.00
2022-12-04T03:14:01.339Z,0.00
2022-12-04T03:15:01.324Z,0.00
2022-12-04T03:16:01.302Z,0.00
2022-12-04T03:17:01.304Z,0.00
2022-12-04T03:18:01.265Z,0.00
2022-12-04T03:19:01.256Z,0.00
2022-12-04T03:20:01.230Z,0.00
2022-12-04T03:21:01.236Z,0.00
2022-12-04T03:22:01.193Z,0.00
2022-12-04T03:23:01.180Z,0.00
2022-12-04T03:24:01.158Z,0.00
2022-12-04T03:25:01.191Z,0.00
2022-12-04T03:26:01.121Z,0.00
2022-12-04T03:27:01.107Z,0.00
2022-12-04T03:28:01.083Z,0.00
2022-12-04T03:29:01.068Z,0.00
2022-12-04T03:30:01.047Z,0.00
2022-12-04T03:31:01.059Z,0.00
2022-12-04T03:32:01.013Z,0.00
2022-12-04T03:33:00.995Z,0.00
2022-12-04T03:34:00.975Z,0.00
2022-12-04T03:35:00.960Z,0.00
2022-12-04T03:36:00.937Z,0.00
2022-12-04T03:37:01.045Z,0.00
2022-12-04T03:38:00.904Z,0.00
2022-12-04T03:39:00.888Z,0.00
2022-12-04T03:40:00.864Z,0.00
2022-12-04T03:41:00.848Z,0.00
2022-12-04T03:42:00.831Z,0.00
2022-12-04T03:43:00.811Z,0.00
2022-12-04T03:44:00.794Z,0.00
2022-12-04T03:45:00.777Z,0.00
2022-12-04T03:46:00.855Z,0.00
2022-12-04T03:47:00.738Z,0.00
2022-12-04T03:48:00.722Z,0.00
2022-12-04T03:49:00.701Z,0.00
2022-12-04T03:50:00.686Z,0.00
2022-12-04T03:51:00.668Z,0.00
2022-12-04T03:52:00.652Z,0.00
2022-12-04T03:53:00.651Z,0.00
2022-12-04T03:54:00.611Z,0.00
2022-12-04T03:55:00.593Z,0.00
2022-12-04T03:56:00.576Z,0.00
2022-12-04T03:57:00.553Z,0.00
2022-12-04T03:58:00.543Z,0.00
2022-12-04T03:59:00.518Z,0.00
2022-12-04T04:00:00.779Z,0.00
2022-12-04T04:01:00.549Z,0.00
2022-12-04T04:02:00.530Z,0.00
2022-12-04T04:03:00.534Z,0.00
2022-12-04T04:04:00.428Z,0.00
2022-12-04T04:05:00.410Z,0.00
2022-12-04T04:06:00.393Z,0.00
2022-12-04T04:07:00.371Z,0.00
2022-12-04T04:08:00.466Z,0.00
2022-12-04T04:09:00.360Z,0.00
2022-12-04T04:10:00.322Z,0.00
2022-12-04T04:11:00.299Z,0.00
2022-12-04T04:12:00.282Z,0.00
2022-12-04T04:13:00.262Z,0.00
2022-12-04T04:14:00.249Z,0.00
2022-12-04T04:15:00.235Z,0.00
2022-12-04T04:16:00.302Z,0.00
2022-12-04T04:17:00.188Z,0.00
2022-12-04T04:18:00.176Z,0.00
2022-12-04T04:19:00.153Z,0.00
2022-12-04T04:20:00.138Z,0.00
2022-12-04T04:21:00.118Z,0.00
2022-12-04T04:22:00.100Z,0.00
2022-12-04T04:23:00.080Z,0.00
2022-12-04T04:24:00.067Z,0.00
2022-12-04T04:25:00.093Z,0.00
2022-12-04T04:26:00.037Z,0.00
2022-12-04T04:27:00.009Z,0.00
2022-12-04T04:27:59.991Z,0.00
2022-12-04T04:28:59.970Z,0.00
2022-12-04T04:29:59.975Z,0.00
2022-12-04T04:31:00.016Z,0.00
2022-12-04T04:31:59.918Z,0.00
2022-12-04T04:32:59.899Z,0.00
2022-12-04T04:33:59.885Z,0.00
2022-12-04T04:34:59.862Z,0.00
2022-12-04T04:35:59.847Z,0.00
2022-12-04T04:36:59.832Z,0.00
2022-12-04T04:37:59.812Z,0.00
2022-12-04T04:38:59.790Z,0.00
2022-12-04T04:39:59.772Z,0.00
2022-12-04T04:40:59.783Z,0.00
2022-12-04T04:41:59.736Z,0.00
2022-12-04T04:42:59.723Z,0.00
2022-12-04T04:43:59.699Z,0.00
2022-12-04T04:44:59.678Z,0.00
2022-12-04T04:45:59.729Z,0.00
2022-12-04T04:46:59.642Z,0.00
2022-12-04T04:47:59.628Z,0.00
2022-12-04T04:48:59.606Z,0.00
2022-12-04T04:49:59.590Z,0.00
2022-12-04T04:50:59.569Z,0.00
2022-12-04T04:51:59.553Z,0.00
2022-12-04T04:52:59.533Z,0.00
2022-12-04T04:53:59.519Z,0.00
2022-12-04T04:54:59.496Z,0.00
2022-12-04T04:55:59.487Z,0.00
2022-12-04T04:56:59.481Z,0.00
2022-12-04T04:57:59.446Z,0.00
2022-12-04T04:58:59.473Z,0.00
2022-12-04T04:59:59.411Z,0.00
2022-12-04T05:00:59.388Z,0.00
2022-12-04T05:01:59.523Z,0.00
2022-12-04T05:02:59.405Z,0.00
2022-12-04T05:03:59.334Z,0.00
2022-12-04T05:04:59.314Z,0.00
2022-12-04T05:05:59.300Z,0.00
2022-12-04T05:06:59.280Z,0.00
2022-12-04T05:07:59.381Z,0.00
2022-12-04T05:08:59.242Z,0.00
2022-12-04T05:09:59.597Z,0.00
2022-12-04T05:10:59.205Z,0.00
2022-12-04T05:11:59.191Z,0.00
2022-12-04T05:12:59.202Z,0.00
2022-12-04T05:13:59.153Z,0.00
2022-12-04T05:14:59.134Z,0.00
2022-12-04T05:15:59.144Z,0.00
2022-12-04T05:17:01.960Z,0.00
2022-12-04T05:17:59.087Z,0.00
2022-12-04T05:18:59.066Z,0.00
2022-12-04T05:19:59.499Z,0.00
2022-12-04T05:20:59.032Z,0.00
2022-12-04T05:21:59.008Z,0.00
2022-12-04T05:22:58.987Z,0.00
2022-12-04T05:23:58.972Z,0.00
2022-12-04T05:24:58.951Z,0.00
2022-12-04T05:25:58.935Z,0.00
2022-12-04T05:26:58.921Z,0.00
2022-12-04T05:27:58.899Z,0.00
2022-12-04T05:28:58.902Z,0.00
2022-12-04T05:29:59.102Z,0.00
2022-12-04T05:30:58.900Z,0.00
2022-12-04T05:31:58.826Z,0.00
2022-12-04T05:32:58.806Z,0.00
2022-12-04T05:33:58.794Z,0.00
2022-12-04T05:34:58.769Z,0.00
2022-12-04T05:35:58.756Z,0.00
2022-12-04T05:36:58.733Z,0.00
2022-12-04T05:37:58.717Z,0.00
2022-12-04T05:38:58.696Z,0.00
2022-12-04T05:39:58.986Z,0.00
2022-12-04T05:40:58.660Z,0.00
2022-12-04T05:41:58.652Z,0.00
2022-12-04T05:42:58.624Z,0.00
2022-12-04T05:43:58.611Z,0.00
2022-12-04T05:44:58.611Z,0.00
2022-12-04T05:45:58.573Z,0.00
2022-12-04T05:46:58.621Z,0.00
2022-12-04T05:47:58.535Z,0.00
2022-12-04T05:48:58.514Z,0.00
2022-12-04T05:49:58.679Z,0.00
2022-12-04T05:50:58.494Z,0.00
2022-12-04T05:51:58.463Z,0.00
2022-12-04T05:52:58.444Z,0.00
2022-12-04T05:53:58.427Z,0.00
2022-12-04T05:54:58.407Z,0.00
2022-12-04T05:55:58.390Z,0.00
2022-12-04T05:56:58.370Z,0.00
2022-12-04T05:57:58.353Z,0.00
2022-12-04T05:58:58.332Z,0.00
2022-12-04T05:59:58.654Z,0.00
2022-12-04T06:00:58.318Z,0.00
2022-12-04T06:01:58.426Z,0.00
2022-12-04T06:02:58.313Z,0.00
2022-12-04T06:03:58.243Z,0.00
2022-12-04T06:04:58.224Z,0.00
2022-12-04T06:05:58.207Z,0.00
2022-12-04T06:06:58.185Z,0.00
2022-12-04T06:07:58.225Z,0.00
2022-12-04T06:08:58.148Z,0.00
2022-12-04T06:09:58.550Z,0.00
2022-12-04T06:10:58.112Z,0.00
2022-12-04T06:11:58.101Z,0.00
2022-12-04T06:12:58.077Z,0.00
2022-12-04T06:13:58.064Z,0.00
2022-12-04T06:14:58.039Z,0.00
2022-12-04T06:15:58.148Z,0.00
2022-12-04T06:16:58.106Z,0.00
2022-12-04T06:17:57.988Z,0.00
2022-12-04T06:18:57.966Z,0.00
2022-12-04T06:19:58.526Z,0.00
2022-12-04T06:20:58.002Z,0.00
2022-12-04T06:21:57.914Z,0.00
2022-12-04T06:22:57.893Z,0.00
2022-12-04T06:23:57.876Z,0.00
2022-12-04T06:24:57.856Z,0.00
2022-12-04T06:26:02.181Z,0.00
2022-12-04T06:27:25.762Z,0.00
2022-12-04T06:27:57.804Z,0.00
2022-12-04T06:28:57.783Z,0.00
2022-12-04T06:29:58.166Z,0.00
2022-12-04T06:30:57.747Z,0.00
2022-12-04T06:31:57.830Z,0.00
2022-12-04T06:32:57.732Z,0.00
2022-12-04T06:33:57.694Z,0.00
2022-12-04T06:34:57.677Z,0.00
2022-12-04T06:35:57.659Z,0.00
2022-12-04T06:36:57.635Z,0.00
2022-12-04T06:37:57.621Z,0.00
2022-12-04T06:38:57.600Z,0.00
2022-12-04T06:39:57.939Z,0.00
2022-12-04T06:40:57.565Z,0.00
2022-12-04T06:41:57.547Z,0.00
2022-12-04T06:43:57.511Z,4.00
2022-12-04T06:44:57.496Z,4.00
2022-12-04T06:45:57.538Z,0.00
2022-12-04T06:47:00.750Z,0.00
2022-12-04T06:47:57.435Z,4.00
2022-12-04T06:48:57.450Z,4.00
2022-12-04T06:49:57.798Z,4.00
2022-12-04T06:50:57.385Z,4.00
2022-12-04T06:51:57.363Z,8.00
2022-12-04T06:52:57.348Z,4.00
2022-12-04T06:53:57.327Z,4.00
2022-12-04T06:54:57.311Z,4.00
2022-12-04T06:55:57.289Z,8.00
2022-12-04T06:56:57.275Z,8.00
2022-12-04T06:57:57.255Z,8.00
2022-12-04T06:58:57.238Z,8.00
2022-12-04T06:59:57.498Z,8.00
2022-12-04T07:00:57.289Z,12.00
2022-12-04T07:01:57.203Z,8.00
2022-12-04T07:02:57.168Z,12.00
2022-12-04T07:03:57.145Z,12.00
2022-12-04T07:04:57.167Z,12.00
2022-12-04T07:05:57.110Z,12.00
2022-12-04T07:06:57.096Z,12.00
2022-12-04T07:07:57.167Z,16.00
2022-12-04T07:08:57.060Z,16.00
2022-12-04T07:09:57.307Z,16.00
2022-12-04T07:10:59.328Z,16.00
2022-12-04T07:11:56.999Z,16.00
2022-12-04T07:12:56.986Z,16.00
2022-12-04T07:13:56.963Z,20.00
2022-12-04T07:14:56.951Z,20.00
2022-12-04T07:15:56.927Z,16.00
2022-12-04T07:16:56.987Z,20.00
2022-12-04T07:17:56.892Z,24.00
2022-12-04T07:18:56.876Z,20.00
2022-12-04T07:19:57.098Z,24.00
2022-12-04T07:20:56.886Z,28.00
2022-12-04T07:21:56.818Z,28.00
2022-12-04T07:22:56.807Z,28.00
2022-12-04T07:23:56.782Z,32.00
2022-12-04T07:24:56.769Z,32.00
2022-12-04T07:25:56.746Z,32.00
2022-12-04T07:26:56.731Z,32.00
2022-12-04T07:27:56.708Z,36.00
2022-12-04T07:28:56.697Z,36.00
2022-12-04T07:29:56.930Z,40.00
2022-12-04T07:30:56.659Z,40.00
2022-12-04T07:31:56.758Z,44.00
2022-12-04T07:32:56.630Z,44.00
2022-12-04T07:33:56.606Z,48.00
2022-12-04T07:34:56.586Z,44.00
2022-12-04T07:35:56.573Z,44.00
2022-12-04T07:36:56.577Z,48.00
2022-12-04T07:37:56.531Z,48.00
2022-12-04T07:38:56.548Z,52.00
2022-12-04T07:39:56.810Z,48.00
2022-12-04T07:40:56.486Z,48.00
2022-12-04T07:41:56.459Z,48.00
2022-12-04T07:42:56.442Z,48.00
2022-12-04T07:43:56.428Z,52.00
2022-12-04T07:44:56.415Z,52.00
2022-12-04T07:45:56.516Z,52.00
2022-12-04T07:46:56.366Z,52.00
2022-12-04T07:47:56.361Z,52.00
2022-12-04T07:48:56.330Z,60.00
2022-12-04T07:49:56.552Z,60.00
2022-12-04T07:50:56.294Z,60.00
2022-12-04T07:51:56.273Z,60.00
2022-12-04T07:52:56.282Z,64.00
2022-12-04T07:53:56.237Z,64.00
2022-12-04T07:54:56.222Z,72.00
2022-12-04T07:55:56.199Z,76.00
2022-12-04T07:56:56.285Z,76.00
2022-12-04T07:57:56.167Z,80.00
2022-12-04T07:58:56.146Z,84.00
2022-12-04T07:59:56.379Z,88.00
2022-12-04T08:00:56.187Z,88.00
2022-12-04T08:01:56.195Z,92.00
2022-12-04T08:02:56.076Z,88.00
2022-12-04T08:03:56.058Z,88.00
2022-12-04T08:04:56.150Z,88.00
2022-12-04T08:05:56.024Z,92.00
2022-12-04T08:06:56.001Z,92.00
2022-12-04T08:07:56.008Z,88.00
2022-12-04T08:08:55.990Z,88.00
2022-12-04T08:09:56.273Z,88.00
2022-12-04T08:10:55.929Z,96.00
2022-12-04T08:11:55.913Z,104.00
2022-12-04T08:12:55.891Z,108.00
2022-12-04T08:13:55.877Z,116.00
2022-12-04T08:14:55.856Z,132.00
2022-12-04T08:15:55.839Z,140.00
2022-12-04T08:16:55.875Z,148.00
2022-12-04T08:17:55.804Z,160.00
2022-12-04T08:18:55.783Z,168.00
2022-12-04T08:19:56.026Z,176.00
2022-12-04T08:20:55.747Z,172.00
2022-12-04T08:21:55.732Z,164.00
2022-12-04T08:22:55.711Z,160.00
2022-12-04T08:23:55.694Z,156.00
2022-12-04T08:24:55.697Z,156.00
2022-12-04T08:25:55.660Z,148.00
2022-12-04T08:26:55.637Z,148.00
2022-12-04T08:27:55.725Z,156.00
2022-12-04T08:28:55.603Z,160.00
2022-12-04T08:29:55.803Z,168.00
2022-12-04T08:30:55.637Z,172.00
2022-12-04T08:31:55.550Z,176.00
2022-12-04T08:32:55.527Z,180.00
2022-12-04T08:33:55.520Z,180.00
2022-12-04T08:34:56.114Z,180.00
2022-12-04T08:35:55.478Z,172.00
2022-12-04T08:36:55.454Z,164.00
2022-12-04T08:37:55.438Z,160.00
2022-12-04T08:38:55.421Z,156.00
2022-12-04T08:39:55.614Z,152.00
2022-12-04T08:40:55.404Z,152.00
2022-12-04T08:41:57.144Z,152.00
2022-12-04T08:42:55.345Z,152.00
2022-12-04T08:43:55.329Z,152.00
2022-12-04T08:44:55.309Z,152.00
2022-12-04T08:45:55.360Z,144.00
2022-12-04T08:46:55.274Z,132.00
2022-12-04T08:47:55.256Z,124.00
2022-12-04T08:48:55.235Z,120.00
2022-12-04T08:49:55.499Z,116.00
2022-12-04T08:50:55.198Z,112.00
2022-12-04T08:51:55.185Z,112.00
2022-12-04T08:52:55.161Z,112.00
2022-12-04T08:53:55.146Z,112.00
2022-12-04T08:54:55.126Z,116.00
2022-12-04T08:55:55.109Z,120.00
2022-12-04T08:56:55.110Z,128.00
2022-12-04T08:57:55.074Z,132.00
2022-12-04T08:58:55.055Z,136.00
2022-12-04T08:59:55.332Z,140.00
2022-12-04T09:00:55.018Z,140.00
2022-12-04T09:01:55.144Z,144.00
2022-12-04T09:02:54.980Z,140.00
2022-12-04T09:03:55.048Z,140.00
2022-12-04T09:04:54.988Z,144.00
2022-12-04T09:05:54.929Z,140.00
2022-12-04T09:06:54.907Z,140.00
2022-12-04T09:07:54.924Z,140.00
2022-12-04T09:08:54.889Z,140.00
2022-12-04T09:09:54.855Z,140.00
2022-12-04T09:10:54.834Z,140.00
2022-12-04T09:11:54.819Z,144.00
2022-12-04T09:12:54.820Z,144.00
2022-12-04T09:13:54.783Z,148.00
2022-12-04T09:14:54.761Z,148.00
2022-12-04T09:15:54.829Z,140.00
2022-12-04T09:16:54.724Z,136.00
2022-12-04T09:17:54.709Z,136.00
2022-12-04T09:18:54.688Z,132.00
2022-12-04T09:20:00.528Z,128.00
2022-12-04T09:20:54.652Z,124.00
2022-12-04T09:21:54.637Z,124.00
2022-12-04T09:23:03.847Z,124.00
2022-12-04T09:23:54.599Z,128.00
2022-12-04T09:24:54.580Z,128.00
2022-12-04T09:25:54.564Z,132.00
2022-12-04T09:26:54.543Z,136.00
2022-12-04T09:27:54.531Z,136.00
2022-12-04T09:28:54.531Z,144.00
2022-12-04T09:29:54.839Z,152.00
2022-12-04T09:30:54.588Z,156.00
2022-12-04T09:31:54.455Z,152.00
2022-12-04T09:32:54.434Z,152.00
2022-12-04T09:33:54.427Z,148.00
2022-12-04T09:34:54.398Z,148.00
2022-12-04T09:35:54.381Z,144.00
2022-12-04T09:36:54.367Z,148.00
2022-12-04T09:37:54.346Z,148.00
2022-12-04T09:38:54.324Z,152.00
2022-12-04T09:39:54.713Z,152.00
2022-12-04T09:40:54.292Z,152.00
2022-12-04T09:41:54.274Z,156.00
2022-12-04T09:42:54.254Z,160.00
2022-12-04T09:43:54.238Z,156.00
2022-12-04T09:44:54.239Z,160.00
2022-12-04T09:45:54.272Z,160.00
2022-12-04T09:46:54.299Z,160.00
2022-12-04T09:47:54.166Z,160.00
2022-12-04T09:48:54.147Z,160.00
2022-12-04T09:49:54.539Z,164.00
2022-12-04T09:50:54.110Z,168.00
2022-12-04T09:51:54.092Z,172.00
2022-12-04T09:52:54.071Z,180.00
2022-12-04T09:53:54.060Z,188.00
2022-12-04T09:54:54.043Z,200.00
2022-12-04T09:55:54.019Z,200.00
2022-12-04T09:56:54.003Z,204.00
2022-12-04T09:57:58.458Z,200.00
2022-12-04T09:58:53.964Z,204.00
2022-12-04T09:59:54.357Z,208.00
2022-12-04T10:00:53.950Z,212.00
2022-12-04T10:01:53.913Z,216.00
2022-12-04T10:02:54.044Z,220.00
2022-12-04T10:03:54.107Z,220.00
2022-12-04T10:04:53.856Z,228.00
2022-12-04T10:05:53.841Z,236.00
2022-12-04T10:06:53.823Z,244.00
2022-12-04T10:07:53.833Z,256.00
2022-12-04T10:08:53.787Z,272.00
2022-12-04T10:09:54.130Z,284.00
2022-12-04T10:10:53.751Z,296.00
2022-12-04T10:11:53.733Z,300.00
2022-12-04T10:12:53.711Z,308.00
2022-12-04T10:13:53.698Z,316.00
2022-12-04T10:14:53.676Z,328.00
2022-12-04T10:15:53.784Z,352.00
2022-12-04T10:16:53.666Z,372.00
2022-12-04T10:17:53.628Z,392.00
2022-12-04T10:18:53.605Z,412.00
2022-12-04T10:19:54.065Z,424.00
2022-12-04T10:20:53.567Z,436.00
2022-12-04T10:21:53.553Z,448.00
2022-12-04T10:22:53.533Z,456.00
2022-12-04T10:23:53.523Z,464.00
2022-12-04T10:24:53.500Z,468.00
2022-12-04T10:25:53.482Z,464.00
2022-12-04T10:26:53.461Z,460.00
2022-12-04T10:27:53.449Z,464.00
2022-12-04T10:28:55.490Z,468.00
2022-12-04T10:29:53.659Z,464.00
2022-12-04T10:30:53.475Z,452.00
2022-12-04T10:31:53.374Z,440.00
2022-12-04T10:32:53.375Z,444.00
2022-12-04T10:33:53.339Z,460.00
2022-12-04T10:34:53.319Z,484.00
2022-12-04T10:35:53.304Z,500.00
2022-12-04T10:36:53.282Z,492.00
2022-12-04T10:37:53.267Z,480.00
2022-12-04T10:38:53.249Z,468.00
2022-12-04T10:39:53.741Z,460.00
2022-12-04T10:40:53.211Z,456.00
2022-12-04T10:41:53.197Z,460.00
2022-12-04T10:42:53.178Z,468.00
2022-12-04T10:43:53.163Z,484.00
2022-12-04T10:44:53.142Z,500.00
2022-12-04T10:45:53.125Z,492.00
2022-12-04T10:46:53.144Z,480.00
2022-12-04T10:47:53.092Z,484.00
2022-12-04T10:48:53.094Z,504.00
2022-12-04T10:49:53.342Z,532.00
2022-12-04T10:50:53.036Z,552.00
2022-12-04T10:51:53.019Z,572.00
2022-12-04T10:52:53.000Z,596.00
2022-12-04T10:53:52.986Z,628.00
2022-12-04T10:54:52.964Z,672.00
2022-12-04T10:55:52.951Z,704.00
2022-12-04T10:56:52.933Z,732.00
2022-12-04T10:57:52.914Z,748.00
2022-12-04T10:58:52.894Z,744.00
2022-12-04T10:59:53.170Z,736.00
2022-12-04T11:00:52.859Z,736.00
2022-12-04T11:01:52.925Z,748.00
2022-12-04T11:02:52.842Z,760.00
2022-12-04T11:03:52.811Z,760.00
2022-12-04T11:04:52.810Z,752.00
2022-12-04T11:05:52.775Z,732.00
2022-12-04T11:06:52.753Z,704.00
2022-12-04T11:07:52.914Z,680.00
2022-12-04T11:08:52.922Z,656.00
2022-12-04T11:09:52.708Z,636.00
2022-12-04T11:10:52.684Z,612.00
2022-12-04T11:11:52.675Z,580.00
2022-12-04T11:12:52.650Z,544.00
2022-12-04T11:13:52.636Z,508.00
2022-12-04T11:14:52.615Z,476.00
2022-12-04T11:15:52.643Z,460.00
2022-12-04T11:16:52.581Z,444.00
2022-12-04T11:17:52.566Z,436.00
2022-12-04T11:18:52.546Z,428.00
2022-12-04T11:19:52.532Z,416.00
2022-12-04T11:20:52.535Z,404.00
2022-12-04T11:21:52.511Z,392.00
2022-12-04T11:22:52.478Z,380.00
2022-12-04T11:23:52.462Z,368.00
2022-12-04T11:24:52.441Z,364.00
2022-12-04T11:25:52.426Z,372.00
2022-12-04T11:26:52.408Z,380.00
2022-12-04T11:27:52.391Z,376.00
2022-12-04T11:28:52.371Z,364.00
2022-12-04T11:29:52.360Z,344.00
2022-12-04T11:30:52.338Z,312.00
2022-12-04T11:31:52.426Z,288.00
2022-12-04T11:32:52.304Z,272.00
2022-12-04T11:33:52.289Z,264.00
2022-12-04T11:34:52.270Z,280.00
2022-12-04T11:35:52.255Z,296.00
2022-12-04T11:36:52.256Z,300.00
2022-12-04T11:37:52.221Z,304.00
2022-12-04T11:38:52.219Z,300.00
2022-12-04T11:39:52.187Z,304.00
2022-12-04T11:40:52.172Z,320.00
2022-12-04T11:41:52.151Z,336.00
2022-12-04T11:42:52.132Z,348.00
2022-12-04T11:43:55.375Z,356.00
2022-12-04T11:44:52.097Z,360.00
2022-12-04T11:45:52.082Z,376.00
2022-12-04T11:46:52.170Z,400.00
2022-12-04T11:47:52.048Z,432.00
2022-12-04T11:48:52.030Z,468.00
2022-12-04T11:49:52.013Z,492.00
2022-12-04T11:50:51.994Z,512.00
2022-12-04T11:51:51.981Z,528.00
2022-12-04T11:52:51.988Z,548.00
2022-12-04T11:53:51.945Z,568.00
2022-12-04T11:54:51.926Z,576.00
2022-12-04T11:55:51.914Z,572.00
2022-12-04T11:56:51.890Z,564.00
2022-12-04T11:57:51.877Z,556.00
2022-12-04T11:58:51.857Z,548.00
2022-12-04T11:59:51.841Z,536.00
2022-12-04T12:00:51.871Z,532.00
2022-12-04T12:01:57.747Z,528.00
2022-12-04T12:02:51.890Z,536.00
2022-12-04T12:03:51.774Z,548.00
2022-12-04T12:04:51.756Z,540.00
2022-12-04T12:05:51.741Z,528.00
2022-12-04T12:06:51.720Z,516.00
2022-12-04T12:07:51.770Z,512.00
2022-12-04T12:08:51.710Z,508.00
2022-12-04T12:09:51.671Z,508.00
2022-12-04T12:10:51.651Z,504.00
2022-12-04T12:11:51.637Z,492.00
2022-12-04T12:12:51.619Z,484.00
2022-12-04T12:13:51.600Z,480.00
2022-12-04T12:14:51.588Z,480.00
2022-12-04T12:15:51.565Z,480.00
2022-12-04T12:16:51.793Z,472.00
2022-12-04T12:17:51.532Z,464.00
2022-12-04T12:18:51.519Z,448.00
2022-12-04T12:19:51.497Z,432.00
2022-12-04T12:20:51.483Z,420.00
2022-12-04T12:21:51.464Z,420.00
2022-12-04T12:22:51.450Z,420.00
2022-12-04T12:23:51.432Z,420.00
2022-12-04T12:24:51.616Z,424.00
2022-12-04T12:25:52.511Z,428.00
2022-12-04T12:26:51.383Z,428.00
2022-12-04T12:27:51.363Z,432.00
2022-12-04T12:28:51.348Z,440.00
2022-12-04T12:29:51.335Z,444.00
2022-12-04T12:30:51.315Z,452.00
2022-12-04T12:31:51.344Z,456.00
2022-12-04T12:32:51.280Z,456.00
2022-12-04T12:33:51.260Z,468.00
2022-12-04T12:34:51.246Z,476.00
2022-12-04T12:35:51.226Z,488.00
2022-12-04T12:36:52.609Z,492.00
2022-12-04T12:37:51.194Z,496.00
2022-12-04T12:38:51.184Z,500.00
2022-12-04T12:39:51.158Z,520.00
2022-12-04T12:40:51.167Z,544.00
2022-12-04T12:41:51.126Z,560.00
2022-12-04T12:42:56.563Z,572.00
2022-12-04T12:43:51.091Z,576.00
2022-12-04T12:44:51.077Z,580.00
2022-12-04T12:45:51.148Z,592.00
2022-12-04T12:46:51.043Z,624.00
2022-12-04T12:47:51.023Z,652.00
2022-12-04T12:48:56.622Z,652.00
2022-12-04T12:49:50.990Z,632.00
2022-12-04T12:51:08.978Z,592.00
2022-12-04T12:51:50.955Z,540.00
2022-12-04T12:52:50.943Z,512.00
2022-12-04T12:53:50.923Z,500.00
2022-12-04T12:54:50.908Z,496.00
2022-12-04T12:55:50.889Z,492.00
2022-12-04T12:56:50.918Z,480.00
2022-12-04T12:57:50.855Z,460.00
2022-12-04T12:58:50.842Z,452.00